Accueil
METAR-TAF:

METAR-TAF

Aéroports :

Nelson Lagoon, Alaska, États-Unis

latitude: 56-00-27N, longitude: 161-09-37W, altitude: 4 m

Observation

Le bulletin a été fait il y a 24 minutes, à 04:56 UTC
Vent 6 kt de sud
Température 2°C
Humidité 93%
Pression 987 hPa
Visibilité: 16.1 km
Quelques nuages à une hauteur de 1200 ft
Nuages épars à une hauteur de 2100 ft
Nuages fragmentés à une hauteur de 3200 ft
pluie faible

METAR: PAOU 080456Z AUTO 19006KT 10SM -RA FEW012 SCT021 BKN032 02/01 A2916 RMK AO2 UPE12B38E40RAB40 SLP873 P0000 T00170006 FZRANO

Heure: 20:20 (05:20 UTC)


TAF: absent

Observations et prévisions météorologiques de plus de 4000 aéroports (messages METAR et TAF).

Les stations disponibles sont représentées par des disques jaunes et rouges sur la carte.

Passer la souris dessus pour voir le nom de la station.

Cliquer dessus pour voir les observations et prévisions météorologiques.

Pour changer de carte: cliquez sur les boutons verts avec une croix noire pour zoomer, sur le bouton vert avec un tiret pour effectuer un zoom arrière, ou sur les flèches vertes pour les cartes adjacentes.


METAR-TAF: